sensor_id;sensor_type;location;lat;lon;timestamp;P1;durP1;ratioP1;P2;durP2;ratioP2
4448;SDS011;2237;51.870;6.160;2023-07-20T00:01:32;9.07;;;4.60;;
4448;SDS011;2237;51.870;6.160;2023-07-20T00:03:59;9.57;;;4.38;;
4448;SDS011;2237;51.870;6.160;2023-07-20T00:06:25;8.82;;;4.55;;
4448;SDS011;2237;51.870;6.160;2023-07-20T00:08:56;9.52;;;5.00;;
4448;SDS011;2237;51.870;6.160;2023-07-20T00:11:25;11.13;;;4.95;;
4448;SDS011;2237;51.870;6.160;2023-07-20T00:13:52;8.63;;;4.22;;
4448;SDS011;2237;51.870;6.160;2023-07-20T00:16:19;9.60;;;4.75;;
4448;SDS011;2237;51.870;6.160;2023-07-20T00:18:46;9.68;;;4.47;;
4448;SDS011;2237;51.870;6.160;2023-07-20T00:21:13;9.60;;;4.82;;
4448;SDS011;2237;51.870;6.160;2023-07-20T00:23:39;8.52;;;4.50;;
4448;SDS011;2237;51.870;6.160;2023-07-20T00:26:06;12.02;;;4.70;;
4448;SDS011;2237;51.870;6.160;2023-07-20T00:28:32;8.02;;;4.68;;
4448;SDS011;2237;51.870;6.160;2023-07-20T00:30:59;11.48;;;5.25;;
4448;SDS011;2237;51.870;6.160;2023-07-20T00:33:26;11.65;;;5.07;;
4448;SDS011;2237;51.870;6.160;2023-07-20T00:35:52;6.95;;;4.75;;
4448;SDS011;2237;51.870;6.160;2023-07-20T00:38:19;7.80;;;5.00;;
4448;SDS011;2237;51.870;6.160;2023-07-20T00:40:46;12.52;;;5.22;;
4448;SDS011;2237;51.870;6.160;2023-07-20T00:43:14;9.10;;;5.10;;
4448;SDS011;2237;51.870;6.160;2023-07-20T00:45:41;10.95;;;5.28;;
4448;SDS011;2237;51.870;6.160;2023-07-20T00:48:08;8.05;;;5.18;;
4448;SDS011;2237;51.870;6.160;2023-07-20T00:50:37;9.38;;;5.45;;
4448;SDS011;2237;51.870;6.160;2023-07-20T00:53:06;10.32;;;5.40;;
4448;SDS011;2237;51.870;6.160;2023-07-20T00:55:33;9.38;;;5.90;;
4448;SDS011;2237;51.870;6.160;2023-07-20T00:58:00;9.18;;;5.22;;
4448;SDS011;2237;51.870;6.160;2023-07-20T01:00:26;15.48;;;6.05;;
4448;SDS011;2237;51.870;6.160;2023-07-20T01:02:53;9.18;;;5.75;;
4448;SDS011;2237;51.870;6.160;2023-07-20T01:05:20;10.10;;;5.38;;
4448;SDS011;2237;51.870;6.160;2023-07-20T01:10:36;12.05;;;5.60;;
4448;SDS011;2237;51.870;6.160;2023-07-20T01:13:07;10.30;;;5.78;;
4448;SDS011;2237;51.870;6.160;2023-07-20T01:15:35;10.00;;;5.90;;
4448;SDS011;2237;51.870;6.160;2023-07-20T01:18:02;14.13;;;6.00;;
4448;SDS011;2237;51.870;6.160;2023-07-20T01:20:30;9.93;;;6.40;;
4448;SDS011;2237;51.870;6.160;2023-07-20T01:23:14;9.65;;;5.80;;
4448;SDS011;2237;51.870;6.160;2023-07-20T01:29:22;8.93;;;5.25;;
4448;SDS011;2237;51.870;6.160;2023-07-20T01:32:10;8.88;;;4.90;;
4448;SDS011;2237;51.870;6.160;2023-07-20T01:34:37;8.77;;;4.80;;
4448;SDS011;2237;51.870;6.160;2023-07-20T01:37:05;7.57;;;4.00;;
4448;SDS011;2237;51.870;6.160;2023-07-20T01:39:33;9.50;;;4.55;;
4448;SDS011;2237;51.870;6.160;2023-07-20T01:42:00;9.15;;;4.85;;
4448;SDS011;2237;51.870;6.160;2023-07-20T01:44:27;9.70;;;5.07;;
4448;SDS011;2237;51.870;6.160;2023-07-20T01:46:55;10.05;;;4.80;;
4448;SDS011;2237;51.870;6.160;2023-07-20T01:49:21;6.80;;;4.60;;
4448;SDS011;2237;51.870;6.160;2023-07-20T01:51:48;8.88;;;4.55;;
4448;SDS011;2237;51.870;6.160;2023-07-20T01:54:14;8.70;;;4.28;;
4448;SDS011;2237;51.870;6.160;2023-07-20T01:56:40;9.95;;;4.32;;
4448;SDS011;2237;51.870;6.160;2023-07-20T01:59:07;10.35;;;4.10;;
4448;SDS011;2237;51.870;6.160;2023-07-20T02:01:33;6.57;;;4.32;;
4448;SDS011;2237;51.870;6.160;2023-07-20T02:04:00;7.03;;;4.05;;
4448;SDS011;2237;51.870;6.160;2023-07-20T02:06:26;6.90;;;4.15;;
4448;SDS011;2237;51.870;6.160;2023-07-20T02:08:53;7.25;;;4.15;;
4448;SDS011;2237;51.870;6.160;2023-07-20T02:11:19;8.45;;;4.50;;
4448;SDS011;2237;51.870;6.160;2023-07-20T02:13:46;8.68;;;4.00;;
4448;SDS011;2237;51.870;6.160;2023-07-20T02:16:12;6.10;;;3.90;;
4448;SDS011;2237;51.870;6.160;2023-07-20T02:18:38;5.70;;;3.42;;
4448;SDS011;2237;51.870;6.160;2023-07-20T02:21:05;5.35;;;3.70;;
4448;SDS011;2237;51.870;6.160;2023-07-20T02:23:31;7.13;;;3.25;;
4448;SDS011;2237;51.870;6.160;2023-07-20T02:25:58;4.57;;;3.10;;
4448;SDS011;2237;51.870;6.160;2023-07-20T02:28:25;4.68;;;2.60;;
4448;SDS011;2237;51.870;6.160;2023-07-20T02:30:51;3.85;;;2.33;;
4448;SDS011;2237;51.870;6.160;2023-07-20T02:33:18;2.63;;;1.60;;
4448;SDS011;2237;51.870;6.160;2023-07-20T02:35:44;3.55;;;1.80;;
4448;SDS011;2237;51.870;6.160;2023-07-20T02:38:10;2.88;;;1.58;;
4448;SDS011;2237;51.870;6.160;2023-07-20T02:40:37;2.33;;;1.40;;
4448;SDS011;2237;51.870;6.160;2023-07-20T02:43:06;3.47;;;1.52;;
4448;SDS011;2237;51.870;6.160;2023-07-20T02:45:32;2.70;;;1.40;;
4448;SDS011;2237;51.870;6.160;2023-07-20T02:47:59;2.15;;;1.50;;
4448;SDS011;2237;51.870;6.160;2023-07-20T02:50:25;3.22;;;1.52;;
4448;SDS011;2237;51.870;6.160;2023-07-20T02:52:52;4.50;;;1.60;;
4448;SDS011;2237;51.870;6.160;2023-07-20T02:55:18;3.03;;;1.48;;
4448;SDS011;2237;51.870;6.160;2023-07-20T02:57:45;1.92;;;1.38;;
4448;SDS011;2237;51.870;6.160;2023-07-20T03:00:11;2.90;;;1.40;;
4448;SDS011;2237;51.870;6.160;2023-07-20T03:02:41;2.28;;;1.33;;
4448;SDS011;2237;51.870;6.160;2023-07-20T03:05:08;2.40;;;1.50;;
4448;SDS011;2237;51.870;6.160;2023-07-20T03:07:35;1.80;;;1.30;;
4448;SDS011;2237;51.870;6.160;2023-07-20T03:10:01;3.60;;;1.65;;
4448;SDS011;2237;51.870;6.160;2023-07-20T03:12:29;4.22;;;1.50;;
4448;SDS011;2237;51.870;6.160;2023-07-20T03:14:55;2.58;;;1.50;;
4448;SDS011;2237;51.870;6.160;2023-07-20T03:17:23;3.00;;;1.70;;
4448;SDS011;2237;51.870;6.160;2023-07-20T03:19:49;1.95;;;1.40;;
4448;SDS011;2237;51.870;6.160;2023-07-20T03:22:16;3.10;;;1.92;;
4448;SDS011;2237;51.870;6.160;2023-07-20T03:24:42;3.30;;;1.52;;
4448;SDS011;2237;51.870;6.160;2023-07-20T03:27:09;3.35;;;1.70;;
4448;SDS011;2237;51.870;6.160;2023-07-20T03:29:35;2.85;;;1.70;;
4448;SDS011;2237;51.870;6.160;2023-07-20T03:32:02;2.72;;;1.70;;
4448;SDS011;2237;51.870;6.160;2023-07-20T03:34:29;1.77;;;1.45;;
4448;SDS011;2237;51.870;6.160;2023-07-20T03:36:55;2.40;;;1.88;;
4448;SDS011;2237;51.870;6.160;2023-07-20T03:39:22;1.95;;;1.35;;
4448;SDS011;2237;51.870;6.160;2023-07-20T03:41:48;2.85;;;1.77;;
4448;SDS011;2237;51.870;6.160;2023-07-20T03:44:15;5.88;;;2.35;;
4448;SDS011;2237;51.870;6.160;2023-07-20T03:46:41;2.30;;;1.70;;
4448;SDS011;2237;51.870;6.160;2023-07-20T03:49:08;3.90;;;2.15;;
4448;SDS011;2237;51.870;6.160;2023-07-20T03:51:35;3.10;;;2.30;;
4448;SDS011;2237;51.870;6.160;2023-07-20T03:54:02;2.08;;;1.77;;
4448;SDS011;2237;51.870;6.160;2023-07-20T03:56:28;4.82;;;2.20;;
4448;SDS011;2237;51.870;6.160;2023-07-20T03:58:55;4.00;;;2.13;;
4448;SDS011;2237;51.870;6.160;2023-07-20T04:01:21;3.17;;;2.00;;
4448;SDS011;2237;51.870;6.160;2023-07-20T04:03:48;3.20;;;2.30;;
4448;SDS011;2237;51.870;6.160;2023-07-20T04:06:15;3.83;;;2.40;;
4448;SDS011;2237;51.870;6.160;2023-07-20T04:08:44;4.30;;;2.53;;
4448;SDS011;2237;51.870;6.160;2023-07-20T04:11:10;3.78;;;2.30;;
4448;SDS011;2237;51.870;6.160;2023-07-20T04:13:37;3.53;;;2.40;;
4448;SDS011;2237;51.870;6.160;2023-07-20T04:16:03;5.22;;;2.42;;
4448;SDS011;2237;51.870;6.160;2023-07-20T04:18:30;4.72;;;2.30;;
4448;SDS011;2237;51.870;6.160;2023-07-20T04:20:56;3.05;;;2.17;;
4448;SDS011;2237;51.870;6.160;2023-07-20T04:23:22;3.83;;;2.00;;
4448;SDS011;2237;51.870;6.160;2023-07-20T04:25:49;4.15;;;2.20;;
4448;SDS011;2237;51.870;6.160;2023-07-20T04:28:15;6.10;;;2.15;;
4448;SDS011;2237;51.870;6.160;2023-07-20T04:30:42;4.18;;;2.28;;
4448;SDS011;2237;51.870;6.160;2023-07-20T04:33:11;3.83;;;2.10;;
4448;SDS011;2237;51.870;6.160;2023-07-20T04:35:53;3.30;;;1.83;;
4448;SDS011;2237;51.870;6.160;2023-07-20T04:38:21;2.97;;;1.83;;
4448;SDS011;2237;51.870;6.160;2023-07-20T04:40:48;3.35;;;1.70;;
4448;SDS011;2237;51.870;6.160;2023-07-20T04:43:16;3.58;;;1.85;;
4448;SDS011;2237;51.870;6.160;2023-07-20T04:45:43;2.78;;;1.67;;
4448;SDS011;2237;51.870;6.160;2023-07-20T04:48:11;3.67;;;1.80;;
4448;SDS011;2237;51.870;6.160;2023-07-20T04:50:42;3.42;;;1.70;;
4448;SDS011;2237;51.870;6.160;2023-07-20T04:53:11;3.63;;;2.03;;
4448;SDS011;2237;51.870;6.160;2023-07-20T04:55:38;2.72;;;2.00;;
4448;SDS011;2237;51.870;6.160;2023-07-20T04:58:06;3.17;;;2.20;;
4448;SDS011;2237;51.870;6.160;2023-07-20T05:00:33;3.00;;;1.90;;
4448;SDS011;2237;51.870;6.160;2023-07-20T05:03:00;3.67;;;1.67;;
4448;SDS011;2237;51.870;6.160;2023-07-20T05:05:27;4.85;;;2.15;;
4448;SDS011;2237;51.870;6.160;2023-07-20T05:07:53;2.85;;;1.80;;
4448;SDS011;2237;51.870;6.160;2023-07-20T05:10:20;2.85;;;1.50;;
4448;SDS011;2237;51.870;6.160;2023-07-20T05:12:47;5.70;;;1.73;;
4448;SDS011;2237;51.870;6.160;2023-07-20T05:15:13;2.00;;;1.80;;
4448;SDS011;2237;51.870;6.160;2023-07-20T05:17:40;4.32;;;1.83;;
4448;SDS011;2237;51.870;6.160;2023-07-20T05:20:07;3.42;;;1.90;;
4448;SDS011;2237;51.870;6.160;2023-07-20T05:22:36;5.00;;;1.85;;
4448;SDS011;2237;51.870;6.160;2023-07-20T05:25:06;6.28;;;1.90;;
4448;SDS011;2237;51.870;6.160;2023-07-20T05:27:37;2.15;;;1.50;;
4448;SDS011;2237;51.870;6.160;2023-07-20T05:30:05;3.97;;;1.67;;
4448;SDS011;2237;51.870;6.160;2023-07-20T05:32:36;1.95;;;1.38;;
4448;SDS011;2237;51.870;6.160;2023-07-20T05:35:02;2.55;;;1.38;;
4448;SDS011;2237;51.870;6.160;2023-07-20T05:37:29;4.63;;;1.80;;
4448;SDS011;2237;51.870;6.160;2023-07-20T05:39:56;2.65;;;1.48;;
4448;SDS011;2237;51.870;6.160;2023-07-20T05:42:23;2.15;;;1.63;;
4448;SDS011;2237;51.870;6.160;2023-07-20T05:44:49;4.18;;;1.80;;
4448;SDS011;2237;51.870;6.160;2023-07-20T05:47:18;2.50;;;1.58;;
4448;SDS011;2237;51.870;6.160;2023-07-20T05:49:45;2.70;;;1.60;;
4448;SDS011;2237;51.870;6.160;2023-07-20T05:52:11;2.63;;;1.58;;
4448;SDS011;2237;51.870;6.160;2023-07-20T05:54:38;2.60;;;1.45;;
4448;SDS011;2237;51.870;6.160;2023-07-20T05:57:05;4.00;;;1.40;;
4448;SDS011;2237;51.870;6.160;2023-07-20T05:59:31;2.42;;;1.20;;
4448;SDS011;2237;51.870;6.160;2023-07-20T06:01:58;1.95;;;1.27;;
4448;SDS011;2237;51.870;6.160;2023-07-20T06:04:25;2.63;;;1.48;;
4448;SDS011;2237;51.870;6.160;2023-07-20T06:06:51;4.22;;;1.67;;
4448;SDS011;2237;51.870;6.160;2023-07-20T06:09:17;2.22;;;0.98;;
4448;SDS011;2237;51.870;6.160;2023-07-20T06:11:44;1.20;;;1.08;;
4448;SDS011;2237;51.870;6.160;2023-07-20T06:14:10;1.95;;;1.10;;
4448;SDS011;2237;51.870;6.160;2023-07-20T06:16:37;2.63;;;1.30;;
4448;SDS011;2237;51.870;6.160;2023-07-20T06:19:03;2.58;;;1.10;;
4448;SDS011;2237;51.870;6.160;2023-07-20T06:21:30;2.60;;;1.20;;
4448;SDS011;2237;51.870;6.160;2023-07-20T06:23:56;3.47;;;1.20;;
4448;SDS011;2237;51.870;6.160;2023-07-20T06:26:23;2.40;;;0.90;;
4448;SDS011;2237;51.870;6.160;2023-07-20T06:28:50;3.50;;;1.15;;
4448;SDS011;2237;51.870;6.160;2023-07-20T06:31:16;2.58;;;1.08;;
4448;SDS011;2237;51.870;6.160;2023-07-20T06:33:43;1.52;;;1.00;;
4448;SDS011;2237;51.870;6.160;2023-07-20T06:36:09;3.50;;;1.30;;
4448;SDS011;2237;51.870;6.160;2023-07-20T06:38:36;1.20;;;1.10;;
4448;SDS011;2237;51.870;6.160;2023-07-20T06:41:03;1.58;;;1.17;;
4448;SDS011;2237;51.870;6.160;2023-07-20T06:43:32;2.45;;;1.00;;
4448;SDS011;2237;51.870;6.160;2023-07-20T06:46:01;1.35;;;0.98;;
4448;SDS011;2237;51.870;6.160;2023-07-20T06:48:28;1.80;;;0.80;;
4448;SDS011;2237;51.870;6.160;2023-07-20T06:50:54;2.60;;;1.05;;
4448;SDS011;2237;51.870;6.160;2023-07-20T06:53:21;1.75;;;0.73;;
4448;SDS011;2237;51.870;6.160;2023-07-20T06:55:47;1.58;;;0.80;;
4448;SDS011;2237;51.870;6.160;2023-07-20T06:58:14;0.95;;;0.60;;
4448;SDS011;2237;51.870;6.160;2023-07-20T07:00:41;1.48;;;0.73;;
4448;SDS011;2237;51.870;6.160;2023-07-20T07:03:08;2.20;;;0.60;;
4448;SDS011;2237;51.870;6.160;2023-07-20T07:05:36;3.17;;;0.63;;
4448;SDS011;2237;51.870;6.160;2023-07-20T07:08:04;0.93;;;0.63;;
4448;SDS011;2237;51.870;6.160;2023-07-20T07:10:35;2.03;;;0.67;;
4448;SDS011;2237;51.870;6.160;2023-07-20T07:13:02;1.73;;;0.77;;
4448;SDS011;2237;51.870;6.160;2023-07-20T07:15:31;1.67;;;0.70;;
4448;SDS011;2237;51.870;6.160;2023-07-20T07:17:58;0.43;;;0.40;;
4448;SDS011;2237;51.870;6.160;2023-07-20T07:20:26;0.80;;;0.40;;
4448;SDS011;2237;51.870;6.160;2023-07-20T07:22:52;1.40;;;0.65;;
4448;SDS011;2237;51.870;6.160;2023-07-20T07:25:19;1.45;;;0.50;;
4448;SDS011;2237;51.870;6.160;2023-07-20T07:27:49;1.42;;;0.40;;
4448;SDS011;2237;51.870;6.160;2023-07-20T07:30:15;0.70;;;0.40;;
4448;SDS011;2237;51.870;6.160;2023-07-20T07:32:42;0.60;;;0.43;;
4448;SDS011;2237;51.870;6.160;2023-07-20T07:35:09;1.27;;;0.50;;
4448;SDS011;2237;51.870;6.160;2023-07-20T07:37:35;1.23;;;0.50;;
4448;SDS011;2237;51.870;6.160;2023-07-20T07:40:22;0.82;;;0.50;;
4448;SDS011;2237;51.870;6.160;2023-07-20T07:42:49;4.43;;;0.45;;
4448;SDS011;2237;51.870;6.160;2023-07-20T07:45:15;1.38;;;0.40;;
4448;SDS011;2237;51.870;6.160;2023-07-20T07:47:42;1.20;;;0.40;;
4448;SDS011;2237;51.870;6.160;2023-07-20T07:50:09;0.80;;;0.40;;
4448;SDS011;2237;51.870;6.160;2023-07-20T07:52:36;0.73;;;0.38;;
4448;SDS011;2237;51.870;6.160;2023-07-20T07:55:03;0.55;;;0.38;;
4448;SDS011;2237;51.870;6.160;2023-07-20T07:57:30;1.05;;;0.50;;
4448;SDS011;2237;51.870;6.160;2023-07-20T07:59:56;2.15;;;0.50;;
4448;SDS011;2237;51.870;6.160;2023-07-20T08:02:23;1.77;;;0.50;;
4448;SDS011;2237;51.870;6.160;2023-07-20T08:04:49;1.38;;;0.40;;
4448;SDS011;2237;51.870;6.160;2023-07-20T08:07:18;2.03;;;0.47;;
4448;SDS011;2237;51.870;6.160;2023-07-20T08:09:44;0.75;;;0.47;;
4448;SDS011;2237;51.870;6.160;2023-07-20T08:12:11;1.08;;;0.47;;
4448;SDS011;2237;51.870;6.160;2023-07-20T08:14:39;0.68;;;0.40;;
4448;SDS011;2237;51.870;6.160;2023-07-20T08:17:06;1.90;;;0.60;;
4448;SDS011;2237;51.870;6.160;2023-07-20T08:19:32;2.53;;;0.90;;
4448;SDS011;2237;51.870;6.160;2023-07-20T08:21:59;0.30;;;0.30;;
4448;SDS011;2237;51.870;6.160;2023-07-20T08:24:25;3.10;;;0.57;;
4448;SDS011;2237;51.870;6.160;2023-07-20T08:26:52;1.63;;;0.50;;
4448;SDS011;2237;51.870;6.160;2023-07-20T08:29:18;0.75;;;0.30;;
4448;SDS011;2237;51.870;6.160;2023-07-20T08:31:45;0.93;;;0.38;;
4448;SDS011;2237;51.870;6.160;2023-07-20T08:34:12;2.40;;;0.70;;
4448;SDS011;2237;51.870;6.160;2023-07-20T08:36:55;1.15;;;0.40;;
4448;SDS011;2237;51.870;6.160;2023-07-20T08:39:22;0.65;;;0.30;;
4448;SDS011;2237;51.870;6.160;2023-07-20T08:41:48;0.75;;;0.40;;
4448;SDS011;2237;51.870;6.160;2023-07-20T08:44:16;1.17;;;0.38;;
4448;SDS011;2237;51.870;6.160;2023-07-20T08:46:43;2.42;;;0.60;;
4448;SDS011;2237;51.870;6.160;2023-07-20T08:49:10;1.95;;;0.45;;
4448;SDS011;2237;51.870;6.160;2023-07-20T08:51:37;0.70;;;0.45;;
4448;SDS011;2237;51.870;6.160;2023-07-20T08:54:05;0.95;;;0.30;;
4448;SDS011;2237;51.870;6.160;2023-07-20T08:56:32;1.95;;;0.40;;
4448;SDS011;2237;51.870;6.160;2023-07-20T08:59:00;0.57;;;0.40;;
4448;SDS011;2237;51.870;6.160;2023-07-20T09:01:28;0.60;;;0.30;;
4448;SDS011;2237;51.870;6.160;2023-07-20T09:03:56;1.05;;;0.30;;
4448;SDS011;2237;51.870;6.160;2023-07-20T09:06:22;1.50;;;0.35;;
4448;SDS011;2237;51.870;6.160;2023-07-20T09:08:50;0.52;;;0.40;;
4448;SDS011;2237;51.870;6.160;2023-07-20T09:11:17;2.67;;;0.52;;
4448;SDS011;2237;51.870;6.160;2023-07-20T09:13:43;0.73;;;0.30;;
4448;SDS011;2237;51.870;6.160;2023-07-20T09:16:13;0.60;;;0.30;;
4448;SDS011;2237;51.870;6.160;2023-07-20T09:21:08;1.05;;;0.50;;
4448;SDS011;2237;51.870;6.160;2023-07-20T09:23:35;1.05;;;0.55;;
4448;SDS011;2237;51.870;6.160;2023-07-20T09:26:13;0.88;;;0.30;;
4448;SDS011;2237;51.870;6.160;2023-07-20T09:28:47;0.40;;;0.38;;
4448;SDS011;2237;51.870;6.160;2023-07-20T09:31:23;1.27;;;0.40;;
4448;SDS011;2237;51.870;6.160;2023-07-20T09:33:51;0.70;;;0.30;;
4448;SDS011;2237;51.870;6.160;2023-07-20T09:36:21;1.05;;;0.30;;
4448;SDS011;2237;51.870;6.160;2023-07-20T09:39:08;0.47;;;0.30;;
4448;SDS011;2237;51.870;6.160;2023-07-20T09:41:41;0.60;;;0.30;;
4448;SDS011;2237;51.870;6.160;2023-07-20T09:44:11;1.02;;;0.40;;
4448;SDS011;2237;51.870;6.160;2023-07-20T09:46:46;0.73;;;0.40;;
4448;SDS011;2237;51.870;6.160;2023-07-20T09:49:17;1.95;;;0.40;;
4448;SDS011;2237;51.870;6.160;2023-07-20T09:51:47;1.85;;;0.43;;
4448;SDS011;2237;51.870;6.160;2023-07-20T09:54:13;0.50;;;0.30;;
4448;SDS011;2237;51.870;6.160;2023-07-20T09:56:41;1.52;;;0.30;;
4448;SDS011;2237;51.870;6.160;2023-07-20T09:59:08;1.00;;;0.40;;
4448;SDS011;2237;51.870;6.160;2023-07-20T10:01:35;0.70;;;0.30;;
4448;SDS011;2237;51.870;6.160;2023-07-20T10:04:08;0.50;;;0.30;;
4448;SDS011;2237;51.870;6.160;2023-07-20T10:06:39;0.70;;;0.40;;
4448;SDS011;2237;51.870;6.160;2023-07-20T10:09:10;1.58;;;0.50;;
4448;SDS011;2237;51.870;6.160;2023-07-20T10:11:38;0.38;;;0.30;;
4448;SDS011;2237;51.870;6.160;2023-07-20T10:14:09;1.95;;;0.73;;
4448;SDS011;2237;51.870;6.160;2023-07-20T10:16:41;3.50;;;0.40;;
4448;SDS011;2237;51.870;6.160;2023-07-20T10:22:17;0.77;;;0.30;;
4448;SDS011;2237;51.870;6.160;2023-07-20T10:24:46;0.67;;;0.40;;
4448;SDS011;2237;51.870;6.160;2023-07-20T10:27:14;0.55;;;0.32;;
4448;SDS011;2237;51.870;6.160;2023-07-20T10:29:41;0.52;;;0.28;;
4448;SDS011;2237;51.870;6.160;2023-07-20T10:32:08;0.30;;;0.30;;
4448;SDS011;2237;51.870;6.160;2023-07-20T10:34:35;1.75;;;0.40;;
4448;SDS011;2237;51.870;6.160;2023-07-20T10:37:03;0.77;;;0.30;;
4448;SDS011;2237;51.870;6.160;2023-07-20T10:39:33;1.15;;;0.40;;
4448;SDS011;2237;51.870;6.160;2023-07-20T10:42:03;1.60;;;0.30;;
4448;SDS011;2237;51.870;6.160;2023-07-20T10:44:34;1.40;;;0.40;;
4448;SDS011;2237;51.870;6.160;2023-07-20T10:47:06;0.90;;;0.30;;
4448;SDS011;2237;51.870;6.160;2023-07-20T10:49:35;0.55;;;0.20;;
4448;SDS011;2237;51.870;6.160;2023-07-20T10:52:18;0.68;;;0.20;;
4448;SDS011;2237;51.870;6.160;2023-07-20T10:54:48;0.63;;;0.30;;
4448;SDS011;2237;51.870;6.160;2023-07-20T10:57:22;1.60;;;0.40;;
4448;SDS011;2237;51.870;6.160;2023-07-20T11:00:07;0.50;;;0.30;;
4448;SDS011;2237;51.870;6.160;2023-07-20T11:02:44;1.48;;;0.52;;
4448;SDS011;2237;51.870;6.160;2023-07-20T11:05:32;0.65;;;0.40;;
4448;SDS011;2237;51.870;6.160;2023-07-20T11:08:03;0.93;;;0.45;;
4448;SDS011;2237;51.870;6.160;2023-07-20T11:10:31;1.20;;;0.40;;
4448;SDS011;2237;51.870;6.160;2023-07-20T11:13:17;0.30;;;0.28;;
4448;SDS011;2237;51.870;6.160;2023-07-20T11:16:00;1.35;;;0.40;;
4448;SDS011;2237;51.870;6.160;2023-07-20T11:18:29;0.80;;;0.30;;
4448;SDS011;2237;51.870;6.160;2023-07-20T11:20:57;1.13;;;0.40;;
4448;SDS011;2237;51.870;6.160;2023-07-20T11:23:24;0.40;;;0.40;;
4448;SDS011;2237;51.870;6.160;2023-07-20T11:25:50;1.13;;;0.47;;
4448;SDS011;2237;51.870;6.160;2023-07-20T11:28:17;2.17;;;0.32;;
4448;SDS011;2237;51.870;6.160;2023-07-20T11:30:43;2.75;;;0.57;;
4448;SDS011;2237;51.870;6.160;2023-07-20T11:33:10;1.80;;;0.32;;
4448;SDS011;2237;51.870;6.160;2023-07-20T11:35:42;2.72;;;0.52;;
4448;SDS011;2237;51.870;6.160;2023-07-20T11:38:11;0.68;;;0.30;;
4448;SDS011;2237;51.870;6.160;2023-07-20T11:40:42;0.60;;;0.30;;
4448;SDS011;2237;51.870;6.160;2023-07-20T11:43:11;1.00;;;0.30;;
4448;SDS011;2237;51.870;6.160;2023-07-20T11:45:41;1.48;;;0.40;;
4448;SDS011;2237;51.870;6.160;2023-07-20T11:48:13;0.73;;;0.30;;
4448;SDS011;2237;51.870;6.160;2023-07-20T11:50:40;1.00;;;0.50;;
4448;SDS011;2237;51.870;6.160;2023-07-20T11:53:07;0.60;;;0.40;;
4448;SDS011;2237;51.870;6.160;2023-07-20T11:55:34;4.53;;;0.55;;
4448;SDS011;2237;51.870;6.160;2023-07-20T11:58:07;1.13;;;0.50;;
4448;SDS011;2237;51.870;6.160;2023-07-20T12:00:35;2.15;;;0.50;;
4448;SDS011;2237;51.870;6.160;2023-07-20T12:03:04;0.50;;;0.30;;
4448;SDS011;2237;51.870;6.160;2023-07-20T12:05:37;0.85;;;0.32;;
4448;SDS011;2237;51.870;6.160;2023-07-20T12:08:24;1.20;;;0.50;;
4448;SDS011;2237;51.870;6.160;2023-07-20T12:10:50;1.92;;;0.80;;
4448;SDS011;2237;51.870;6.160;2023-07-20T12:13:17;4.28;;;0.80;;
4448;SDS011;2237;51.870;6.160;2023-07-20T12:15:43;1.00;;;0.50;;
4448;SDS011;2237;51.870;6.160;2023-07-20T12:18:10;1.15;;;0.50;;
4448;SDS011;2237;51.870;6.160;2023-07-20T12:20:37;0.80;;;0.50;;
4448;SDS011;2237;51.870;6.160;2023-07-20T12:28:12;2.13;;;0.70;;
4448;SDS011;2237;51.870;6.160;2023-07-20T12:30:41;0.77;;;0.60;;
4448;SDS011;2237;51.870;6.160;2023-07-20T12:33:09;0.82;;;0.82;;
4448;SDS011;2237;51.870;6.160;2023-07-20T12:35:36;0.70;;;0.38;;
4448;SDS011;2237;51.870;6.160;2023-07-20T12:38:03;1.15;;;0.52;;
4448;SDS011;2237;51.870;6.160;2023-07-20T12:40:29;1.15;;;0.40;;
4448;SDS011;2237;51.870;6.160;2023-07-20T12:42:56;1.75;;;0.50;;
4448;SDS011;2237;51.870;6.160;2023-07-20T12:45:23;0.82;;;0.40;;
4448;SDS011;2237;51.870;6.160;2023-07-20T12:47:49;1.27;;;0.50;;
4448;SDS011;2237;51.870;6.160;2023-07-20T12:50:16;1.58;;;0.57;;
4448;SDS011;2237;51.870;6.160;2023-07-20T12:52:43;1.33;;;0.63;;
4448;SDS011;2237;51.870;6.160;2023-07-20T12:55:09;0.85;;;0.60;;
4448;SDS011;2237;51.870;6.160;2023-07-20T12:57:36;2.25;;;0.50;;
4448;SDS011;2237;51.870;6.160;2023-07-20T13:00:04;1.45;;;0.70;;
4448;SDS011;2237;51.870;6.160;2023-07-20T13:02:34;0.57;;;0.40;;
4448;SDS011;2237;51.870;6.160;2023-07-20T13:05:01;2.42;;;0.50;;
4448;SDS011;2237;51.870;6.160;2023-07-20T13:07:29;0.73;;;0.43;;
4448;SDS011;2237;51.870;6.160;2023-07-20T13:10:01;1.25;;;0.77;;
4448;SDS011;2237;51.870;6.160;2023-07-20T13:12:31;0.57;;;0.40;;
4448;SDS011;2237;51.870;6.160;2023-07-20T13:14:58;1.90;;;0.82;;
4448;SDS011;2237;51.870;6.160;2023-07-20T13:17:28;1.02;;;0.50;;
4448;SDS011;2237;51.870;6.160;2023-07-20T13:19:55;0.80;;;0.50;;
4448;SDS011;2237;51.870;6.160;2023-07-20T13:22:21;1.20;;;0.40;;
4448;SDS011;2237;51.870;6.160;2023-07-20T13:24:49;1.13;;;0.40;;
4448;SDS011;2237;51.870;6.160;2023-07-20T13:27:16;1.17;;;0.70;;
4448;SDS011;2237;51.870;6.160;2023-07-20T13:29:45;1.70;;;0.63;;
4448;SDS011;2237;51.870;6.160;2023-07-20T13:32:14;1.92;;;0.68;;
4448;SDS011;2237;51.870;6.160;2023-07-20T13:34:41;3.67;;;0.80;;
4448;SDS011;2237;51.870;6.160;2023-07-20T13:37:08;0.65;;;0.43;;
4448;SDS011;2237;51.870;6.160;2023-07-20T13:39:38;2.63;;;0.50;;
4448;SDS011;2237;51.870;6.160;2023-07-20T13:42:05;2.50;;;0.50;;
4448;SDS011;2237;51.870;6.160;2023-07-20T13:44:32;1.10;;;0.45;;
4448;SDS011;2237;51.870;6.160;2023-07-20T13:46:59;1.23;;;0.68;;
4448;SDS011;2237;51.870;6.160;2023-07-20T13:49:29;3.42;;;0.47;;
4448;SDS011;2237;51.870;6.160;2023-07-20T13:52:02;0.43;;;0.30;;
4448;SDS011;2237;51.870;6.160;2023-07-20T13:54:31;1.85;;;1.00;;
4448;SDS011;2237;51.870;6.160;2023-07-20T13:56:58;1.30;;;0.52;;
4448;SDS011;2237;51.870;6.160;2023-07-20T13:59:24;0.75;;;0.60;;
4448;SDS011;2237;51.870;6.160;2023-07-20T14:01:51;1.73;;;0.60;;
4448;SDS011;2237;51.870;6.160;2023-07-20T14:04:38;1.95;;;0.60;;
4448;SDS011;2237;51.870;6.160;2023-07-20T14:07:04;1.98;;;0.70;;
4448;SDS011;2237;51.870;6.160;2023-07-20T14:09:31;1.33;;;0.50;;
4448;SDS011;2237;51.870;6.160;2023-07-20T14:11:58;1.52;;;0.85;;
4448;SDS011;2237;51.870;6.160;2023-07-20T14:14:27;0.70;;;0.68;;
4448;SDS011;2237;51.870;6.160;2023-07-20T14:16:54;1.08;;;0.75;;
4448;SDS011;2237;51.870;6.160;2023-07-20T14:19:22;1.63;;;0.70;;
4448;SDS011;2237;51.870;6.160;2023-07-20T14:21:49;2.97;;;0.80;;
4448;SDS011;2237;51.870;6.160;2023-07-20T14:24:15;1.52;;;0.52;;
4448;SDS011;2237;51.870;6.160;2023-07-20T14:26:45;1.17;;;0.60;;
4448;SDS011;2237;51.870;6.160;2023-07-20T14:29:17;2.47;;;0.70;;
4448;SDS011;2237;51.870;6.160;2023-07-20T14:31:44;1.73;;;0.80;;
4448;SDS011;2237;51.870;6.160;2023-07-20T14:34:11;1.83;;;0.88;;
4448;SDS011;2237;51.870;6.160;2023-07-20T14:36:38;2.75;;;1.00;;
4448;SDS011;2237;51.870;6.160;2023-07-20T14:39:07;1.30;;;0.90;;
4448;SDS011;2237;51.870;6.160;2023-07-20T14:41:34;1.15;;;0.80;;
4448;SDS011;2237;51.870;6.160;2023-07-20T14:44:00;1.60;;;1.00;;
4448;SDS011;2237;51.870;6.160;2023-07-20T14:46:26;2.33;;;0.90;;
4448;SDS011;2237;51.870;6.160;2023-07-20T14:48:54;5.78;;;1.30;;
4448;SDS011;2237;51.870;6.160;2023-07-20T14:51:21;1.17;;;0.93;;
4448;SDS011;2237;51.870;6.160;2023-07-20T14:53:47;1.92;;;0.93;;
4448;SDS011;2237;51.870;6.160;2023-07-20T14:56:14;2.38;;;1.00;;
4448;SDS011;2237;51.870;6.160;2023-07-20T14:58:40;1.33;;;1.02;;
4448;SDS011;2237;51.870;6.160;2023-07-20T15:01:06;2.28;;;1.10;;
4448;SDS011;2237;51.870;6.160;2023-07-20T15:03:33;1.85;;;1.10;;
4448;SDS011;2237;51.870;6.160;2023-07-20T15:06:00;1.40;;;0.88;;
4448;SDS011;2237;51.870;6.160;2023-07-20T15:08:27;5.38;;;1.10;;
4448;SDS011;2237;51.870;6.160;2023-07-20T15:10:54;1.50;;;0.90;;
4448;SDS011;2237;51.870;6.160;2023-07-20T15:13:21;0.82;;;0.80;;
4448;SDS011;2237;51.870;6.160;2023-07-20T15:15:48;1.40;;;0.98;;
4448;SDS011;2237;51.870;6.160;2023-07-20T15:18:15;1.92;;;0.90;;
4448;SDS011;2237;51.870;6.160;2023-07-20T15:20:41;1.95;;;1.30;;
4448;SDS011;2237;51.870;6.160;2023-07-20T15:23:08;3.85;;;1.00;;
4448;SDS011;2237;51.870;6.160;2023-07-20T15:25:34;0.82;;;0.73;;
4448;SDS011;2237;51.870;6.160;2023-07-20T15:28:01;1.70;;;0.93;;
4448;SDS011;2237;51.870;6.160;2023-07-20T15:30:28;2.63;;;0.95;;
4448;SDS011;2237;51.870;6.160;2023-07-20T15:32:58;1.73;;;1.00;;
4448;SDS011;2237;51.870;6.160;2023-07-20T15:35:27;2.00;;;1.23;;
4448;SDS011;2237;51.870;6.160;2023-07-20T15:37:53;4.05;;;1.20;;